This is the latest recevied weather packets stored in our database for station/object DL4JCP-6. If no packets are shown the sender has not sent any weather packets the latest 1 day(s).
| Time | Temp. | Humidity | Pressure | Rain* | Wind** | Luminosity | Snow |
|---|---|---|---|---|---|---|---|
| 1778098227 | 12.22° C | 89% | 1007.6 hPa | 0 mm | - | - | - |
| 1778097927 | 12.22° C | 89% | 1007.6 hPa | 0 mm | - | - | - |
| 1778096728 | 12.22° C | 89% | 1007.3 hPa | 0 mm | - | - | - |
| 1778096128 | 12.22° C | 88% | 1007.2 hPa | 0 mm | - | - | - |
| 1778095991 | 12.22° C | 88% | 1007.1 hPa | 0 mm | - | - | - |
| 1778095828 | 12.22° C | 88% | 1007.1 hPa | 0 mm | - | - | - |
| 1778095528 | 12.78° C | 87% | 1007.1 hPa | 0 mm | - | - | - |
| 1778093727 | 13.33° C | 84% | 1007.2 hPa | 0 mm | - | - | - |
| 1778092528 | 13.33° C | 82% | 1006.6 hPa | 0 mm | - | - | - |
| 1778092391 | 13.33° C | 82% | 1006.6 hPa | 0 mm | - | - | - |
| 1778092228 | 13.33° C | 82% | 1006.6 hPa | 0 mm | - | - | - |
| 1778091628 | 13.33° C | 82% | 1006.7 hPa | 0 mm | - | - | - |
| 1778087891 | 15.56° C | 70% | 1006.4 hPa | 0 mm | - | - | - |
| 1778079929 | 16.11° C | 69% | 1007.1 hPa | 0 mm | - | - | - |
| 1778079628 | 16.11° C | 70% | 1007.1 hPa | 0 mm | - | - | - |
| 1778077828 | 16.11° C | 69% | 1007 hPa | 0 mm | - | - | - |
| 1778077527 | 16.11° C | 70% | 1007.1 hPa | 0 mm | - | - | - |
| 1778077227 | 16.11° C | 68% | 1007 hPa | 0 mm | - | - | - |
| 1778076191 | 16.67° C | 68% | 1007.2 hPa | 0 mm | - | - | - |
| 1778075428 | 16.67° C | 69% | 1007.2 hPa | 0 mm | - | - | - |
| 1778075291 | 16.67° C | 69% | 1007.2 hPa | 0 mm | - | - | - |
| 1778074528 | 16.11° C | 69% | 1007.2 hPa | 0 mm | - | - | - |
| 1778073491 | 16.67° C | 69% | 1007.4 hPa | 0 mm | - | - | - |
| 1778073328 | 16.67° C | 69% | 1007.4 hPa | 0 mm | - | - | - |
| 1778073027 | 16.67° C | 70% | 1007.5 hPa | 0 mm | - | - | - |
* Rain latest hour (hover to see other rain measurements)
** Current wind speed in m/s (hover to see current wind gust speed)